Green Castle, Missouri
Current Conditions -  °F | °C
As of 5:55 PM on Wednesday 28 Jan 2015 (Local Time) from KIRK Reporting Station
Clear Clear  
Wind Chill: 43°   Ceiling: Unl
Heat Index: 48°   Visibility: 10mi
Dew Point: 38°   Wind: 12mph
Humidity: 68%   Direction: 150°SSE
Pressure: 29.74"   Gusts: NA
Location:  40.26°N, 92.88°W
Report Text: KIRK 282355Z AUTO 15010KT 10SM CLR 09/03 A2974 RMK AO2 SLP081 T00890033 10111 20061 56026
Loading
Personal Weather Stations






























Interactive Weather Map New forecast layout! Learn more

10-Day Weather Forecast

Advertisements
Track Severe Weather on mobile